Time;durP1;ratioP1;P1;durP2;ratioP2;P2;SDS_P1;SDS_P2;PMS_P1;PMS_P2;Temp;Humidity;BMP_temperature;BMP_pressure;BME280_temperature;BME280_humidity;BME280_pressure;Samples;Min_cycle;Max_cycle;Signal;HPM_P1;HPM_P2
2023/05/23 00:02:12;;;;;;;11.15;6.30;;;14.70;99.90;;;;;;2621218;46;20917;31
2023/05/23 00:04:48;;;;;;;7.40;5.50;;;14.60;99.90;;;;;;2603073;54;20042;31
2023/05/23 00:07:25;;;;;;;7.85;5.13;;;14.60;99.90;;;;;;2621172;46;20072;31
2023/05/23 00:10:05;;;;;;;7.72;5.50;;;14.60;99.90;;;;;;2602711;54;21040;31
2023/05/23 00:12:41;;;;;;;6.97;4.97;;;14.50;99.90;;;;;;2602770;54;20081;31
2023/05/23 00:15:21;;;;;;;9.15;5.95;;;14.50;99.90;;;;;;2602768;54;21097;31
2023/05/23 00:17:58;;;;;;;8.37;5.63;;;14.50;99.90;;;;;;2603296;54;20022;31
2023/05/23 00:20:36;;;;;;;7.10;5.30;;;14.50;99.90;;;;;;2602142;54;20092;31
2023/05/23 00:23:17;;;;;;;6.78;5.22;;;14.40;99.90;;;;;;2649214;39;20402;31
2023/05/23 00:25:54;;;;;;;7.00;5.10;;;14.40;99.90;;;;;;2602677;54;21285;31
2023/05/23 00:28:29;;;;;;;8.52;5.22;;;14.40;99.90;;;;;;2602996;54;20045;31
2023/05/23 00:31:11;;;;;;;7.28;5.53;;;14.30;99.90;;;;;;2603015;54;20034;31
2023/05/23 00:33:48;;;;;;;8.48;5.57;;;14.30;99.90;;;;;;2602322;54;22274;31
2023/05/23 00:39:17;;;;;;;6.32;5.68;;;14.20;99.90;;;;;;2602871;54;20050;31
2023/05/23 00:41:55;;;;;;;8.75;6.00;;;14.20;99.90;;;;;;2602753;54;20942;31
2023/05/23 00:44:38;;;;;;;10.40;5.68;;;14.20;99.90;;;;;;2603055;54;20862;31
2023/05/23 00:47:19;;;;;;;6.60;5.38;;;14.10;99.90;;;;;;2609550;47;20030;31
2023/05/23 00:49:59;;;;;;;7.43;5.50;;;14.10;99.90;;;;;;2604273;47;20843;31
2023/05/23 00:52:36;;;;;;;7.10;4.93;;;14.10;99.90;;;;;;2601514;54;20794;31
2023/05/23 00:55:13;;;;;;;8.85;6.32;;;14.10;99.90;;;;;;2601841;54;20030;31
2023/05/23 00:57:54;;;;;;;10.90;5.10;;;14.00;99.90;;;;;;2602628;54;20048;31
2023/05/23 01:00:33;;;;;;;8.38;5.18;;;14.00;99.90;;;;;;2602027;54;20037;31
2023/05/23 01:03:16;;;;;;;11.40;6.47;;;13.90;99.90;;;;;;2601979;54;20883;31
2023/05/23 01:05:55;;;;;;;9.82;6.10;;;13.90;99.90;;;;;;2611295;47;20041;31
2023/05/23 01:08:32;;;;;;;8.13;5.38;;;13.90;99.90;;;;;;2620915;47;20883;31
2023/05/23 01:11:14;;;;;;;8.45;6.30;;;13.90;99.90;;;;;;2621132;47;20039;31
2023/05/23 01:13:56;;;;;;;12.30;5.85;;;13.80;99.90;;;;;;2602904;54;20904;31
2023/05/23 01:16:36;;;;;;;10.48;6.90;;;13.80;99.90;;;;;;2602641;54;20869;31
2023/05/23 01:19:25;;;;;;;7.53;5.55;;;13.70;99.90;;;;;;2603027;54;20093;31
2023/05/23 01:22:02;;;;;;;8.47;5.40;;;13.80;99.90;;;;;;2603751;54;20038;31
2023/05/23 01:24:43;;;;;;;6.60;5.55;;;13.70;99.90;;;;;;2603459;54;20068;31
2023/05/23 01:27:25;;;;;;;7.18;5.03;;;13.70;99.90;;;;;;2602821;54;20438;31
2023/05/23 01:30:04;;;;;;;7.70;6.10;;;13.60;99.90;;;;;;2602478;54;20026;31
2023/05/23 01:32:44;;;;;;;8.55;7.00;;;13.60;99.90;;;;;;2603604;54;20077;31
2023/05/23 01:35:24;;;;;;;8.35;5.63;;;13.60;99.90;;;;;;2603393;54;20080;31
2023/05/23 01:38:03;;;;;;;7.80;5.20;;;13.50;99.90;;;;;;2626275;39;21411;31
2023/05/23 01:40:40;;;;;;;6.75;5.25;;;13.50;99.90;;;;;;2603359;54;20753;31
2023/05/23 01:43:19;;;;;;;9.43;5.78;;;13.50;99.90;;;;;;2603621;54;20097;31
2023/05/23 01:46:02;;;;;;;9.15;5.85;;;13.50;99.90;;;;;;2623023;39;21039;31
2023/05/23 01:51:12;;;;;;;10.25;6.40;;;13.40;99.90;;;;;;2621809;46;20030;31
2023/05/23 01:53:53;;;;;;;10.73;6.60;;;13.40;99.90;;;;;;2603540;54;20026;31
2023/05/23 01:56:31;;;;;;;6.85;5.90;;;13.30;99.90;;;;;;2603292;54;20045;31
2023/05/23 01:59:09;;;;;;;7.78;5.93;;;13.40;99.90;;;;;;2603304;54;20026;31
2023/05/23 02:01:49;;;;;;;8.43;5.70;;;13.40;99.90;;;;;;2614347;46;20969;31
2023/05/23 02:04:27;;;;;;;15.23;6.40;;;13.30;99.90;;;;;;2602588;54;20030;31
2023/05/23 02:07:06;;;;;;;9.95;5.85;;;13.30;99.90;;;;;;2602444;54;20957;31
2023/05/23 02:09:41;;;;;;;10.20;6.10;;;13.40;99.90;;;;;;2603561;54;20027;31
2023/05/23 02:12:17;;;;;;;11.90;5.90;;;13.30;99.90;;;;;;2603333;54;20030;31
2023/05/23 02:14:54;;;;;;;9.52;5.57;;;13.20;99.90;;;;;;2603460;54;20043;31
2023/05/23 02:17:41;;;;;;;8.43;6.65;;;13.30;99.90;;;;;;2621768;46;21244;31
2023/05/23 02:20:17;;;;;;;7.90;5.83;;;13.20;99.90;;;;;;2603164;54;20767;31
2023/05/23 02:22:55;;;;;;;8.35;6.05;;;13.20;99.90;;;;;;2621842;46;20044;31
2023/05/23 02:25:32;;;;;;;9.52;5.82;;;13.10;99.90;;;;;;2603098;54;20022;31
2023/05/23 02:28:10;;;;;;;10.82;6.82;;;13.10;99.90;;;;;;2602609;54;20100;31
2023/05/23 02:30:46;;;;;;;12.88;7.63;;;13.10;99.90;;;;;;2615462;46;20046;31
2023/05/23 02:33:27;;;;;;;7.25;6.15;;;13.00;99.90;;;;;;2606800;46;20104;31
2023/05/23 02:36:09;;;;;;;9.52;6.70;;;13.00;99.90;;;;;;2603188;54;20974;31
2023/05/23 02:38:47;;;;;;;10.50;7.10;;;13.00;99.90;;;;;;2602589;54;20147;31
2023/05/23 02:41:23;;;;;;;10.68;5.20;;;13.00;99.90;;;;;;2602557;54;22283;31
2023/05/23 02:43:59;;;;;;;9.35;6.35;;;12.90;99.90;;;;;;2602989;54;20869;31
2023/05/23 02:46:36;;;;;;;7.60;6.25;;;12.90;99.90;;;;;;2603439;54;20042;31
2023/05/23 02:49:17;;;;;;;8.57;6.60;;;12.90;99.90;;;;;;2603189;54;20059;31
2023/05/23 02:51:55;;;;;;;7.00;5.47;;;12.80;99.90;;;;;;2602568;54;20076;31
2023/05/23 02:54:33;;;;;;;7.63;5.90;;;12.80;99.90;;;;;;2602333;54;20458;31
2023/05/23 02:57:15;;;;;;;7.85;5.50;;;12.80;99.90;;;;;;2602521;54;21034;31
2023/05/23 02:59:53;;;;;;;10.33;6.40;;;12.80;99.90;;;;;;2602998;54;20026;31
2023/05/23 03:02:32;;;;;;;9.05;6.05;;;12.70;99.90;;;;;;2602928;54;20842;31
2023/05/23 03:05:13;;;;;;;9.30;6.40;;;12.80;99.90;;;;;;2602888;54;20161;31
2023/05/23 03:07:51;;;;;;;10.20;5.85;;;12.80;99.90;;;;;;2603064;54;20034;31
2023/05/23 03:10:27;;;;;;;8.48;6.30;;;12.70;99.90;;;;;;2602811;54;20031;31
2023/05/23 03:13:04;;;;;;;;;;;12.70;99.90;;;;;;2616257;46;20879;31
2023/05/23 03:15:41;;;;;;;;;;;12.70;99.90;;;;;;2621054;46;20748;31
2023/05/23 03:18:16;;;;;;;14.98;6.63;;;12.70;99.90;;;;;;2621499;46;20758;31
2023/05/23 03:20:55;;;;;;;10.55;6.78;;;12.70;99.90;;;;;;2603132;54;21006;31
2023/05/23 03:23:32;;;;;;;9.82;6.20;;;12.70;99.90;;;;;;2603043;54;20038;31
2023/05/23 03:26:09;;;;;;;12.15;6.50;;;12.70;99.90;;;;;;2602953;54;20773;31
2023/05/23 03:28:46;;;;;;;10.00;7.00;;;12.70;99.90;;;;;;2603156;54;20026;31
2023/05/23 03:31:27;;;;;;;9.63;7.25;;;12.70;99.90;;;;;;2602198;54;20026;31
2023/05/23 03:34:04;;;;;;;10.55;7.57;;;12.70;99.90;;;;;;2602935;54;20756;31
2023/05/23 03:36:45;;;;;;;11.02;7.25;;;12.70;99.90;;;;;;2602471;54;20038;31
2023/05/23 03:39:24;;;;;;;12.55;7.50;;;12.70;99.90;;;;;;2602207;54;20220;31
2023/05/23 03:42:03;;;;;;;9.63;7.03;;;12.80;99.90;;;;;;2604812;46;20025;31
2023/05/23 03:44:39;;;;;;;10.77;6.28;;;12.90;99.90;;;;;;2602552;54;20068;31
2023/05/23 03:47:15;;;;;;;10.40;7.20;;;12.90;99.90;;;;;;2602400;54;22304;31
2023/05/23 03:49:52;;;;;;;9.48;7.03;;;13.00;99.90;;;;;;2603069;54;20061;31
2023/05/23 03:52:39;;;;;;;7.63;6.65;;;13.00;99.90;;;;;;2602917;54;20027;31
2023/05/23 03:55:21;;;;;;;9.70;6.72;;;13.00;99.90;;;;;;2621303;46;20887;31
2023/05/23 03:58:02;;;;;;;8.07;6.35;;;13.00;99.90;;;;;;2665501;31;21543;31
2023/05/23 04:00:39;;;;;;;11.40;7.10;;;13.10;99.90;;;;;;2602171;54;20026;31
2023/05/23 04:03:19;;;;;;;8.50;6.65;;;13.20;99.90;;;;;;2602998;54;20164;31
2023/05/23 04:08:37;;;;;;;8.00;7.10;;;13.40;99.90;;;;;;2602352;54;20642;31
2023/05/23 04:11:12;;;;;;;13.82;7.15;;;13.60;99.90;;;;;;2602052;54;20911;31
2023/05/23 04:13:50;;;;;;;9.10;7.60;;;13.60;99.90;;;;;;2602819;54;20022;31
2023/05/23 04:16:27;;;;;;;7.67;6.73;;;13.70;99.90;;;;;;2602151;54;20762;31
2023/05/23 04:19:07;;;;;;;11.90;7.57;;;13.70;99.90;;;;;;2602822;54;21195;31
2023/05/23 04:21:45;;;;;;;10.98;8.23;;;13.70;99.90;;;;;;2602072;54;20846;31
2023/05/23 04:24:29;;;;;;;10.83;6.93;;;13.70;99.90;;;;;;2602974;54;20022;31
2023/05/23 04:27:06;;;;;;;8.75;6.85;;;13.80;99.90;;;;;;2602111;54;20026;31
2023/05/23 04:29:49;;;;;;;12.50;7.95;;;13.90;99.90;;;;;;2602883;54;20116;31
2023/05/23 04:32:25;;;;;;;13.30;7.15;;;14.00;99.90;;;;;;2602718;54;20110;31
2023/05/23 04:35:01;;;;;;;9.73;7.57;;;14.20;99.90;;;;;;2602329;54;22280;31
2023/05/23 04:37:38;;;;;;;9.70;7.80;;;14.30;99.90;;;;;;2700565;39;20354;31
2023/05/23 04:40:22;;;;;;;8.82;7.65;;;14.40;99.90;;;;;;2603096;54;20029;31
2023/05/23 04:43:09;;;;;;;10.02;7.65;;;14.60;99.90;;;;;;2649477;39;21384;31
2023/05/23 04:45:53;;;;;;;11.40;7.60;;;14.80;99.90;;;;;;2602734;54;20037;31
2023/05/23 04:48:47;;;;;;;13.25;8.68;;;14.90;99.90;;;;;;2602866;54;20065;31
2023/05/23 04:51:23;;;;;;;8.75;6.45;;;14.90;99.90;;;;;;2621105;47;20919;31
2023/05/23 04:54:07;;;;;;;9.85;7.50;;;15.10;99.90;;;;;;2602487;54;20875;31
2023/05/23 04:56:48;;;;;;;13.00;7.60;;;15.30;99.90;;;;;;2603518;54;20033;31
2023/05/23 04:59:27;;;;;;;10.48;7.55;;;15.50;99.90;;;;;;2621733;46;20903;31
2023/05/23 05:02:04;;;;;;;11.75;7.47;;;15.70;99.90;;;;;;2603811;54;20954;31
2023/05/23 05:04:41;;;;;;;9.40;6.70;;;15.90;99.90;;;;;;2602883;54;20488;31
2023/05/23 05:07:20;;;;;;;11.70;7.15;;;16.10;99.90;;;;;;2620454;46;20928;31
2023/05/23 05:09:57;;;;;;;9.73;6.93;;;16.30;99.90;;;;;;2603484;54;20025;31
2023/05/23 05:12:42;;;;;;;9.05;6.65;;;16.50;99.90;;;;;;2603549;54;20062;31
2023/05/23 05:15:20;;;;;;;8.65;6.40;;;16.60;99.90;;;;;;2603427;54;20884;31
2023/05/23 05:18:04;;;;;;;10.23;6.75;;;16.80;99.90;;;;;;2603434;54;20798;31
2023/05/23 05:20:41;;;;;;;8.82;6.13;;;17.00;99.90;;;;;;2603314;54;20914;31
2023/05/23 05:23:20;;;;;;;10.20;6.35;;;17.20;99.90;;;;;;2603497;54;20090;31
2023/05/23 05:25:58;;;;;;;9.40;6.18;;;17.40;99.90;;;;;;2603442;54;20046;31
2023/05/23 05:28:37;;;;;;;11.57;6.60;;;17.50;99.90;;;;;;2622034;46;20026;31
2023/05/23 05:31:17;;;;;;;12.60;7.00;;;17.70;99.90;;;;;;2603508;54;20026;31
2023/05/23 05:36:31;;;;;;;9.50;6.50;;;17.90;99.90;;;;;;2603498;54;20756;31
2023/05/23 05:39:08;;;;;;;12.95;6.13;;;18.00;99.90;;;;;;2609665;46;21003;31
2023/05/23 05:41:44;;;;;;;8.50;6.50;;;17.90;99.90;;;;;;2602805;54;20052;31
2023/05/23 05:44:25;;;;;;;8.07;5.90;;;17.80;99.90;;;;;;2603312;54;20042;31
2023/05/23 05:47:03;;;;;;;8.98;6.40;;;17.70;99.90;;;;;;2603308;54;21004;31
2023/05/23 05:49:42;;;;;;;11.13;6.78;;;17.70;99.90;;;;;;2603419;54;20882;31
2023/05/23 05:52:19;;;;;;;10.05;6.45;;;17.90;99.90;;;;;;2603658;54;20038;31
2023/05/23 05:55:06;;;;;;;9.10;6.55;;;17.90;99.90;;;;;;2603593;54;20048;31
2023/05/23 05:57:49;;;;;;;13.60;6.95;;;18.20;99.90;;;;;;2602752;54;20073;31
2023/05/23 06:00:41;;;;;;;13.38;6.13;;;18.30;99.90;;;;;;2603681;54;20033;31
2023/05/23 06:09:44;;;;;;;8.73;6.10;;;19.10;99.90;;;;;;2602486;54;20921;31
2023/05/23 06:12:30;;;;;;;13.82;7.43;;;19.20;99.90;;;;;;2603114;54;20030;31
2023/05/23 06:15:17;;;;;;;9.50;6.50;;;19.30;99.90;;;;;;2603116;54;20915;31
2023/05/23 06:21:05;;;;;;;8.90;6.80;;;19.70;99.90;;;;;;2603266;54;20045;31
2023/05/23 06:23:47;;;;;;;9.07;6.50;;;19.90;99.90;;;;;;2621809;46;19960;31
2023/05/23 06:26:28;;;;;;;12.15;6.30;;;20.10;99.90;;;;;;2602784;54;20981;31
2023/05/23 06:29:04;;;;;;;11.77;6.70;;;20.20;99.90;;;;;;2602519;54;20023;31
2023/05/23 06:31:43;;;;;;;8.38;6.32;;;20.30;99.90;;;;;;2603450;54;20831;31
2023/05/23 06:37:28;;;;;;;9.10;6.40;;;20.40;99.90;;;;;;2602575;54;20887;31
2023/05/23 06:40:13;;;;;;;12.30;6.90;;;20.50;99.90;;;;;;2603475;54;20305;31
2023/05/23 06:42:48;;;;;;;8.57;6.13;;;20.80;99.90;;;;;;2602428;54;20905;31
2023/05/23 07:03:59;;;;;;;14.30;6.10;;;20.90;99.90;;;;;;2610937;54;20038;31
2023/05/23 07:22:06;;;;;;;8.87;6.33;;;22.40;99.90;;;;;;2611092;54;21112;31
2023/05/23 07:28:06;;;;;;;10.32;6.57;;;23.10;99.90;;;;;;2610458;54;20034;31
2023/05/23 07:30:45;;;;;;;10.02;6.43;;;23.40;99.90;;;;;;2603298;54;20022;31
2023/05/23 07:33:23;;;;;;;11.05;6.30;;;23.70;99.90;;;;;;2603264;54;20105;31
2023/05/23 07:36:04;;;;;;;10.60;6.65;;;24.10;99.90;;;;;;2621641;46;20022;31
2023/05/23 07:38:45;;;;;;;11.23;6.15;;;24.30;99.90;;;;;;2603162;54;20038;31
2023/05/23 07:41:20;;;;;;;7.85;6.35;;;24.30;99.90;;;;;;2602922;54;20030;31
2023/05/23 07:43:59;;;;;;;11.27;6.07;;;24.30;99.90;;;;;;2602931;54;20938;31
2023/05/23 07:46:35;;;;;;;12.98;6.22;;;24.40;99.90;;;;;;2603289;54;20053;31
2023/05/23 07:49:14;;;;;;;13.25;6.05;;;24.50;99.90;;;;;;2608550;39;21433;31
2023/05/23 07:51:53;;;;;;;17.25;8.55;;;24.60;99.90;;;;;;2602201;54;20030;31
2023/05/23 07:54:35;;;;;;;14.05;8.10;;;24.60;99.90;;;;;;2602303;54;20030;31
2023/05/23 07:57:14;;;;;;;12.93;6.38;;;24.40;99.90;;;;;;2602315;54;20863;31
2023/05/23 07:59:51;;;;;;;12.45;5.85;;;24.30;99.90;;;;;;2603161;54;20732;31
2023/05/23 08:02:27;;;;;;;9.85;5.65;;;24.20;99.90;;;;;;2603001;54;20080;31
2023/05/23 08:05:03;;;;;;;8.90;6.25;;;24.00;99.90;;;;;;2603112;54;20046;31
2023/05/23 08:07:45;;;;;;;7.72;5.72;;;23.90;99.90;;;;;;2603269;54;20047;31
2023/05/23 08:10:27;;;;;;;9.38;5.80;;;23.70;99.90;;;;;;2602978;54;20896;31
2023/05/23 08:13:22;;;;;;;8.38;5.63;;;23.50;99.90;;;;;;2602874;54;20031;31
2023/05/23 08:16:20;;;;;;;11.23;5.82;;;23.30;99.90;;;;;;2603182;54;20941;31
2023/05/23 08:19:02;;;;;;;13.57;5.78;;;23.30;99.90;;;;;;2602942;54;20026;31
2023/05/23 08:21:41;;;;;;;14.00;6.40;;;23.20;99.90;;;;;;2603103;54;20038;31
2023/05/23 08:27:09;;;;;;;12.30;6.13;;;23.20;99.90;;;;;;2621458;47;20074;31
2023/05/23 08:29:47;;;;;;;8.25;5.63;;;23.30;99.90;;;;;;2603559;54;20838;31
2023/05/23 08:32:26;;;;;;;10.50;5.63;;;23.20;99.90;;;;;;2603037;54;20978;31
2023/05/23 08:35:02;;;;;;;8.88;6.05;;;23.20;99.90;;;;;;2603585;54;20935;31
2023/05/23 08:56:19;;;;;;;9.45;6.00;;;22.70;99.90;;;;;;2611572;54;20077;31
2023/05/23 10:05:37;;;;;;;13.30;8.52;;;21.00;99.90;;;;;;2610819;54;20848;31
2023/05/23 11:13:13;;;;;;;15.23;10.07;;;21.10;99.90;;;;;;2614815;39;21533;31
2023/05/23 11:19:26;;;;;;;14.10;10.80;;;21.30;99.90;;;;;;2602143;54;20912;31
2023/05/23 11:36:49;;;;;;;14.25;8.80;;;22.00;99.90;;;;;;2601981;54;20027;31
2023/05/23 11:39:31;;;;;;;13.13;9.48;;;22.10;99.90;;;;;;2602191;54;20918;31
2023/05/23 11:57:30;;;;;;;12.30;9.65;;;22.40;99.90;;;;;;2602506;54;20104;31
2023/05/23 12:00:12;;;;;;;13.55;9.50;;;22.50;99.90;;;;;;2602978;54;20920;31
2023/05/23 12:08:45;;;;;;;12.90;9.83;;;22.70;99.90;;;;;;2610877;54;20886;31
2023/05/23 12:11:22;;;;;;;14.98;9.68;;;22.70;99.90;;;;;;2602957;54;20043;31
2023/05/23 12:14:06;;;;;;;12.70;10.38;;;22.70;99.90;;;;;;2602324;54;20031;31
2023/05/23 12:16:44;;;;;;;17.00;10.02;;;22.70;99.90;;;;;;2617695;39;21519;31
2023/05/23 12:19:29;;;;;;;14.27;9.02;;;22.60;99.90;;;;;;2602962;54;20043;31
2023/05/23 12:25:04;;;;;;;12.50;9.85;;;22.60;99.90;;;;;;2603128;54;21210;31
2023/05/23 12:27:41;;;;;;;10.88;7.90;;;22.60;99.90;;;;;;2603020;54;20796;31
2023/05/23 12:30:27;;;;;;;10.35;8.20;;;22.60;99.90;;;;;;2602409;54;20143;31
2023/05/23 13:09:39;;;;;;;11.65;9.20;;;23.10;99.90;;;;;;2610973;54;20011;31
2023/05/23 13:15:05;;;;;;;11.75;8.88;;;23.40;99.90;;;;;;2611008;54;19926;31
2023/05/23 13:17:45;;;;;;;12.05;8.95;;;23.60;99.90;;;;;;2629723;39;21529;31
2023/05/23 13:20:28;;;;;;;17.25;9.35;;;23.60;99.90;;;;;;2602656;54;20038;31
2023/05/23 13:23:04;;;;;;;11.95;8.45;;;23.70;99.90;;;;;;2603550;54;20026;31
2023/05/23 13:25:42;;;;;;;8.38;7.18;;;23.80;99.90;;;;;;2603663;54;20899;31
2023/05/23 13:28:18;;;;;;;13.50;7.15;;;23.90;99.90;;;;;;2603570;54;20042;31
2023/05/23 13:30:54;;;;;;;;;;;23.90;99.90;;;;;;2622168;46;20051;31
2023/05/23 13:33:33;;;;;;;13.70;6.90;;;23.90;99.90;;;;;;2603431;54;19946;31
2023/05/23 13:36:12;;;;;;;22.42;8.70;;;23.80;99.90;;;;;;2621806;46;21051;31
2023/05/23 13:38:50;;;;;;;26.20;9.57;;;23.80;99.90;;;;;;2603410;54;20900;31
2023/05/23 13:41:33;;;;;;;14.10;8.18;;;23.80;99.90;;;;;;2603605;54;20902;31
2023/05/23 13:44:08;;;;;;;11.30;8.10;;;23.70;99.90;;;;;;2603325;54;20045;31
2023/05/23 13:46:46;;;;;;;12.35;7.80;;;23.70;99.90;;;;;;2603290;54;20050;31
2023/05/23 13:49:23;;;;;;;12.80;8.07;;;23.60;99.90;;;;;;2621947;46;20034;31
2023/05/23 13:52:00;;;;;;;15.10;8.30;;;23.60;99.90;;;;;;2603282;54;20026;31
2023/05/23 13:54:35;;;;;;;12.40;8.43;;;23.60;99.90;;;;;;2603358;54;20053;31
2023/05/23 13:57:14;;;;;;;;;;;23.60;99.90;;;;;;2621828;46;20049;31
2023/05/23 13:59:49;;;;;;;10.23;6.57;;;23.60;99.90;;;;;;2602642;54;19946;31
2023/05/23 14:02:26;;;;;;;11.02;6.35;;;23.60;99.90;;;;;;2603278;54;20056;31
2023/05/23 14:05:06;;;;;;;65.40;13.17;;;23.60;99.90;;;;;;2603049;54;20093;31
2023/05/23 14:07:41;;;;;;;12.82;6.68;;;23.60;99.90;;;;;;2603148;54;20045;31
2023/05/23 14:10:22;;;;;;;10.50;6.80;;;23.50;99.90;;;;;;2603118;54;20915;31
2023/05/23 14:13:00;;;;;;;9.10;6.55;;;23.50;99.90;;;;;;2602558;54;20038;31
2023/05/23 14:15:37;;;;;;;15.80;6.50;;;23.50;99.90;;;;;;2603240;54;20035;31
2023/05/23 14:18:16;;;;;;;250.65;34.83;;;23.40;99.90;;;;;;2603004;54;20019;31
2023/05/23 14:20:55;;;;;;;14.43;6.65;;;23.40;99.90;;;;;;2603143;54;20026;31
2023/05/23 14:23:31;;;;;;;9.50;6.53;;;23.30;99.90;;;;;;2603306;54;20031;31
2023/05/23 14:26:11;;;;;;;16.90;7.10;;;23.30;99.90;;;;;;2603167;54;20030;31
2023/05/23 14:28:52;;;;;;;10.68;6.70;;;23.20;99.90;;;;;;2603093;54;20038;31
2023/05/23 14:31:30;;;;;;;16.58;7.07;;;23.20;99.90;;;;;;2602463;54;20030;31
2023/05/23 14:34:13;;;;;;;94.80;16.15;;;23.10;99.90;;;;;;2603194;54;20101;31
2023/05/23 14:36:52;;;;;;;23.85;10.27;;;23.10;99.90;;;;;;2602486;54;20807;31
2023/05/23 14:39:31;;;;;;;16.27;7.73;;;23.10;99.90;;;;;;2621488;46;20042;31
2023/05/23 14:42:09;;;;;;;18.95;8.18;;;23.00;99.90;;;;;;2621662;46;20026;31
2023/05/23 14:44:53;;;;;;;15.57;6.70;;;23.00;99.90;;;;;;2603328;54;20023;31
2023/05/23 14:47:36;;;;;;;19.33;6.80;;;22.90;99.90;;;;;;2603085;54;20029;31
2023/05/23 14:50:14;;;;;;;6.25;5.57;;;23.00;99.90;;;;;;2621579;46;20022;31
2023/05/23 14:52:50;;;;;;;9.05;6.45;;;23.00;99.90;;;;;;2621176;46;20026;31
2023/05/23 14:55:27;;;;;;;11.32;6.40;;;23.00;99.90;;;;;;2603377;54;20038;31
2023/05/23 14:58:04;;;;;;;9.57;5.73;;;23.00;99.90;;;;;;2602951;54;20030;31
2023/05/23 15:00:46;;;;;;;9.70;6.10;;;23.10;99.90;;;;;;2618015;39;21587;31
2023/05/23 15:03:23;;;;;;;16.23;6.53;;;23.00;99.90;;;;;;2602555;54;20118;31
2023/05/23 15:06:05;;;;;;;145.35;22.02;;;23.00;99.90;;;;;;2621417;46;20986;31
2023/05/23 15:08:43;;;;;;;21.02;7.32;;;23.00;99.90;;;;;;2602587;54;20914;31
2023/05/23 15:11:25;;;;;;;106.10;16.13;;;23.00;99.90;;;;;;2603058;54;20849;31
2023/05/23 15:14:03;;;;;;;9.15;6.18;;;22.90;99.90;;;;;;2602724;54;20861;31
2023/05/23 15:16:43;;;;;;;7.80;5.85;;;22.90;99.90;;;;;;2603122;54;20132;31
2023/05/23 15:22:17;;;;;;;10.43;6.63;;;22.80;99.90;;;;;;2603160;54;20052;31
2023/05/23 15:28:12;;;;;;;8.93;6.82;;;22.80;99.90;;;;;;2611040;54;19942;31
2023/05/23 15:33:39;;;;;;;89.10;15.93;;;22.90;99.90;;;;;;2602296;54;20030;31
2023/05/23 15:36:18;;;;;;;122.00;19.58;;;22.90;99.90;;;;;;2603075;54;20136;31
2023/05/23 15:38:55;;;;;;;17.90;6.88;;;22.90;99.90;;;;;;2602390;54;20034;31
2023/05/23 15:41:35;;;;;;;13.60;6.50;;;22.90;99.90;;;;;;2602538;54;20026;31
2023/05/23 15:44:16;;;;;;;13.05;6.40;;;22.80;99.90;;;;;;2603040;54;20873;31
2023/05/23 15:46:57;;;;;;;15.38;6.68;;;22.80;99.90;;;;;;2603107;54;20762;31
2023/05/23 15:49:36;;;;;;;28.70;12.30;;;22.80;99.90;;;;;;2603028;54;20026;31
2023/05/23 15:52:13;;;;;;;38.35;15.15;;;22.70;99.90;;;;;;2621466;46;20038;31
2023/05/23 15:54:53;;;;;;;50.38;18.90;;;22.70;99.90;;;;;;2603251;54;20030;31
2023/05/23 15:57:28;;;;;;;27.97;11.00;;;22.70;99.90;;;;;;2602740;54;20049;31
2023/05/23 16:00:05;;;;;;;19.05;7.65;;;22.60;99.90;;;;;;2602948;54;20911;31
2023/05/23 16:03:04;;;;;;;12.35;6.70;;;22.60;99.90;;;;;;2602880;54;20019;31
2023/05/23 16:05:47;;;;;;;10.20;6.60;;;22.60;99.90;;;;;;2621149;46;20085;31
2023/05/23 16:08:21;;;;;;;9.75;6.07;;;22.50;99.90;;;;;;2602860;54;20116;31
2023/05/23 16:11:01;;;;;;;14.13;6.65;;;22.40;99.90;;;;;;2602209;54;21009;31
2023/05/23 16:13:38;;;;;;;7.65;6.22;;;22.40;99.90;;;;;;2604840;46;20108;31
2023/05/23 16:16:14;;;;;;;11.90;5.95;;;22.30;99.90;;;;;;2617504;46;20136;31
2023/05/23 16:18:49;;;;;;;45.03;10.05;;;22.30;99.90;;;;;;2602078;54;20031;31
2023/05/23 16:21:27;;;;;;;;;;;22.20;99.90;;;;;;2602962;54;20023;31
2023/05/23 16:24:02;;;;;;;8.70;5.88;;;22.20;99.90;;;;;;2602711;54;20760;31
2023/05/23 16:26:39;;;;;;;11.55;6.00;;;22.10;99.90;;;;;;2621599;47;20054;31
2023/05/23 16:29:15;;;;;;;8.85;6.40;;;22.00;99.90;;;;;;2602766;54;20031;31
2023/05/23 16:31:50;;;;;;;9.60;5.90;;;22.00;99.90;;;;;;2621344;47;20771;31
2023/05/23 16:34:28;;;;;;;6.18;5.45;;;22.00;99.90;;;;;;2621116;47;20943;31
2023/05/23 16:37:11;;;;;;;8.20;5.60;;;22.10;99.90;;;;;;2621634;47;19957;31
2023/05/23 16:39:49;;;;;;;8.73;6.38;;;22.10;99.90;;;;;;2602906;54;20038;31
2023/05/23 16:42:26;;;;;;;52.25;12.15;;;22.10;99.90;;;;;;2628872;31;21466;31
2023/05/23 16:45:01;;;;;;;12.70;7.10;;;22.20;99.90;;;;;;2602552;54;20033;31
2023/05/23 16:47:37;;;;;;;8.95;5.70;;;22.20;99.90;;;;;;2602748;54;20113;31
2023/05/23 16:50:14;;;;;;;16.08;6.90;;;22.20;99.90;;;;;;2603382;54;20057;31
2023/05/23 16:52:52;;;;;;;12.30;6.32;;;22.20;99.90;;;;;;2602752;54;22257;31
2023/05/23 16:55:28;;;;;;;9.68;6.43;;;22.10;99.90;;;;;;2603781;54;20046;31
2023/05/23 16:58:04;;;;;;;;;;;22.10;99.90;;;;;;2603924;54;20069;31
2023/05/23 17:00:40;;;;;;;10.93;7.13;;;22.00;99.90;;;;;;2603775;54;19993;31
2023/05/23 17:03:17;;;;;;;111.40;20.88;;;22.00;99.90;;;;;;2602790;54;20441;31
2023/05/23 17:05:53;;;;;;;23.60;8.47;;;22.00;99.90;;;;;;2603724;54;20027;31
2023/05/23 17:08:31;;;;;;;10.32;7.20;;;21.90;99.90;;;;;;2603567;54;20847;31
2023/05/23 17:11:09;;;;;;;9.77;7.50;;;21.90;99.90;;;;;;2621821;46;20914;31
2023/05/23 17:13:45;;;;;;;;;;;21.80;99.90;;;;;;2603707;54;20945;31
2023/05/23 17:16:20;;;;;;;10.93;7.40;;;21.80;99.90;;;;;;2603422;54;20702;31
2023/05/23 17:18:59;;;;;;;12.90;9.90;;;21.70;99.90;;;;;;2602793;54;20030;31
2023/05/23 17:21:35;;;;;;;12.25;9.80;;;21.60;99.90;;;;;;2603509;54;20779;31
2023/05/23 17:24:16;;;;;;;26.95;11.38;;;21.60;99.90;;;;;;2603286;54;20922;31
2023/05/23 17:26:52;;;;;;;9.85;8.63;;;21.60;99.90;;;;;;2621747;46;20116;31
2023/05/23 17:29:30;;;;;;;101.18;18.60;;;21.50;99.90;;;;;;2603487;54;20491;31
2023/05/23 17:32:09;;;;;;;27.05;8.95;;;21.40;99.90;;;;;;2603430;54;20917;31
2023/05/23 17:34:46;;;;;;;27.77;10.45;;;21.40;99.90;;;;;;2603217;54;20752;31
2023/05/23 17:37:25;;;;;;;15.48;8.43;;;21.30;99.90;;;;;;2622201;46;20064;31
2023/05/23 17:40:05;;;;;;;11.88;7.75;;;21.20;99.90;;;;;;2603516;54;20754;31
2023/05/23 17:42:42;;;;;;;17.48;7.75;;;21.20;99.90;;;;;;2603337;54;20103;31
2023/05/23 17:45:21;;;;;;;9.20;7.60;;;21.10;99.90;;;;;;2622212;46;20026;31
2023/05/23 17:48:02;;;;;;;8.15;7.30;;;21.00;99.90;;;;;;2603289;54;20053;31
2023/05/23 17:50:44;;;;;;;17.60;8.30;;;20.90;99.90;;;;;;2603600;54;20097;31
2023/05/23 17:53:19;;;;;;;8.90;7.47;;;20.80;99.90;;;;;;2603465;54;20729;31
2023/05/23 17:55:58;;;;;;;12.05;8.85;;;20.70;99.90;;;;;;2603644;54;20057;31
2023/05/23 18:01:10;;;;;;;10.10;8.60;;;20.50;99.90;;;;;;2602804;54;20030;31
2023/05/23 18:03:48;;;;;;;8.65;7.75;;;20.40;99.90;;;;;;2602661;54;20022;31
2023/05/23 18:06:25;;;;;;;12.57;8.68;;;20.30;99.90;;;;;;2603211;54;20084;31
2023/05/23 18:09:01;;;;;;;9.15;8.25;;;20.20;99.90;;;;;;2603275;54;20077;31
2023/05/23 18:11:41;;;;;;;88.68;17.83;;;20.20;99.90;;;;;;2621686;46;19946;31
2023/05/23 18:14:17;;;;;;;71.60;15.05;;;20.10;99.90;;;;;;2603485;54;20848;31
2023/05/23 18:16:56;;;;;;;24.85;10.40;;;20.00;99.90;;;;;;2603244;54;20483;31
2023/05/23 18:19:37;;;;;;;9.68;8.65;;;19.90;99.90;;;;;;2602488;54;20042;31
2023/05/23 18:22:15;;;;;;;17.33;9.95;;;19.80;99.90;;;;;;2621880;46;20036;31
2023/05/23 18:24:54;;;;;;;10.27;9.18;;;19.70;99.90;;;;;;2603233;54;20894;31
2023/05/23 18:27:30;;;;;;;11.70;9.73;;;19.70;99.90;;;;;;2603366;54;20069;31
2023/05/23 18:30:11;;;;;;;10.88;9.77;;;19.60;99.90;;;;;;2603306;54;20026;31
2023/05/23 18:32:47;;;;;;;12.07;10.13;;;19.50;99.90;;;;;;2603486;54;20102;31
2023/05/23 18:35:25;;;;;;;12.05;10.32;;;19.40;99.90;;;;;;2616370;46;20246;31
2023/05/23 18:38:03;;;;;;;29.65;12.60;;;19.30;99.90;;;;;;2615836;46;20153;31
2023/05/23 18:40:39;;;;;;;14.65;10.35;;;19.20;99.90;;;;;;2603051;54;20045;31
2023/05/23 18:43:16;;;;;;;15.35;10.60;;;19.20;99.90;;;;;;2603439;54;20030;31
2023/05/23 18:45:59;;;;;;;11.52;9.82;;;19.10;99.90;;;;;;2603151;54;21144;31
2023/05/23 18:48:35;;;;;;;13.65;9.35;;;19.00;99.90;;;;;;2603297;54;20822;31
2023/05/23 18:51:12;;;;;;;11.70;9.25;;;18.90;99.90;;;;;;2603301;54;20038;31
2023/05/23 18:53:51;;;;;;;11.90;7.97;;;18.90;99.90;;;;;;2603177;54;20026;31
2023/05/23 18:56:27;;;;;;;9.02;8.07;;;18.80;99.90;;;;;;2603336;54;20258;31
2023/05/23 18:59:03;;;;;;;8.50;7.63;;;18.70;99.90;;;;;;2603186;54;20034;31
2023/05/23 19:01:41;;;;;;;8.95;8.05;;;18.70;99.90;;;;;;2603212;54;20105;31